Time;durP1;ratioP1;P1;durP2;ratioP2;P2;SDS_P1;SDS_P2;PMS_P1;PMS_P2;Temp;Humidity;BMP_temperature;BMP_pressure;BME280_temperature;BME280_humidity;BME280_pressure;Samples;Min_cycle;Max_cycle;Signal;HPM_P1;HPM_P2
2022/12/16 00:01:45;;;;;;;;;18.25;17.50;;;;;3.19;100.00;100715.97;5076950;27;45530;-80
2022/12/16 00:04:10;;;;;;;;;26.00;22.25;;;;;3.16;100.00;100711.53;5076924;27;45466;-78
2022/12/16 00:06:36;;;;;;;;;27.50;21.00;;;;;3.15;100.00;100714.97;5095544;27;45514;-79
2022/12/16 00:09:01;;;;;;;;;25.00;22.00;;;;;3.12;100.00;100723.56;5077508;27;48031;-79
2022/12/16 00:11:27;;;;;;;;;24.75;20.00;;;;;3.12;100.00;100726.16;5095807;27;45426;-77
2022/12/16 00:13:52;;;;;;;;;19.75;15.75;;;;;3.12;100.00;100726.16;5095713;27;45381;-77
2022/12/16 00:16:20;;;;;;;;;26.25;18.00;;;;;3.10;100.00;100727.84;5095394;27;45594;-78
2022/12/16 00:18:46;;;;;;;;;26.50;21.25;;;;;3.10;100.00;100722.63;5096273;27;46379;-80
2022/12/16 00:21:11;;;;;;;;;20.50;18.75;;;;;3.11;100.00;100742.66;5095870;27;45431;-77
2022/12/16 00:23:43;;;;;;;;;25.25;18.00;;;;;3.06;100.00;100730.25;5095025;27;45259;-77
2022/12/16 00:26:10;;;;;;;;;22.75;18.00;;;;;3.04;100.00;100727.59;5067279;27;45596;-77
2022/12/16 00:28:36;;;;;;;;;32.00;20.50;;;;;3.06;100.00;100735.47;5078113;27;45398;-78
2022/12/16 00:31:01;;;;;;;;;24.00;23.00;;;;;3.03;100.00;100745.78;5077062;27;45568;-78
2022/12/16 00:33:27;;;;;;;;;22.75;19.00;;;;;2.95;100.00;100732.44;5059906;27;45870;-79
2022/12/16 00:35:53;;;;;;;;;23.00;17.75;;;;;2.99;100.00;100744.78;5078109;27;45332;-79
2022/12/16 00:38:19;;;;;;;;;22.75;18.50;;;;;2.98;100.00;100747.31;5076671;27;46566;-79
2022/12/16 00:40:44;;;;;;;;;25.75;22.50;;;;;2.96;100.00;100741.16;5078083;27;45305;-77
2022/12/16 00:43:10;;;;;;;;;25.50;22.25;;;;;2.93;100.00;100739.34;5074314;27;45526;-79
2022/12/16 00:45:36;;;;;;;;;35.00;28.25;;;;;2.91;100.00;100733.16;5072105;27;45421;-78
2022/12/16 00:48:01;;;;;;;;;30.00;24.25;;;;;2.85;100.00;100744.22;5074960;27;46009;-77
2022/12/16 00:50:27;;;;;;;;;17.00;17.00;;;;;2.85;100.00;100746.81;5088629;27;45432;-78
2022/12/16 00:52:52;;;;;;;;;19.25;15.75;;;;;2.83;100.00;100750.22;5091358;27;45512;-77
2022/12/16 00:55:18;;;;;;;;;24.25;23.25;;;;;2.78;100.00;100739.59;5076579;27;45591;-80
2022/12/16 00:57:44;;;;;;;;;17.00;16.25;;;;;2.80;100.00;100747.47;5056820;28;47324;-77
2022/12/16 01:00:12;;;;;;;;;18.00;17.75;;;;;2.76;100.00;100745.56;5091783;27;45466;-79
2022/12/16 01:02:45;;;;;;;;;21.25;15.00;;;;;2.74;100.00;100761.16;5076054;27;45472;-79
2022/12/16 01:05:12;;;;;;;;;25.25;20.50;;;;;2.72;100.00;100764.53;5094438;27;45571;-79
2022/12/16 01:07:38;;;;;;;;;26.00;18.75;;;;;2.68;100.00;100768.72;5087680;27;46605;-77
2022/12/16 01:10:05;;;;;;;;;24.25;22.25;;;;;2.65;100.00;100770.28;5094640;27;46361;-78
2022/12/16 01:12:30;;;;;;;;;25.00;20.00;;;;;2.63;100.00;100767.63;5058954;27;45557;-78
2022/12/16 01:14:56;;;;;;;;;33.75;24.00;;;;;2.65;100.00;100778.13;5077373;27;45329;-80
2022/12/16 01:17:24;;;;;;;;;24.25;21.25;;;;;2.67;100.00;100779.09;5073944;27;46054;-78
2022/12/16 01:19:50;;;;;;;;;33.75;19.25;;;;;2.68;100.00;100783.47;5071147;27;45533;-79
2022/12/16 01:22:16;;;;;;;;;28.50;21.00;;;;;2.70;100.00;100781.81;5077526;27;45457;-77
2022/12/16 01:24:43;;;;;;;;;22.25;20.75;;;;;2.71;100.00;100786.19;5076138;27;45348;-78
2022/12/16 01:27:08;;;;;;;;;27.25;21.75;;;;;2.72;100.00;100782.78;5076413;27;46697;-79
2022/12/16 01:29:33;;;;;;;;;27.00;20.75;;;;;2.69;100.00;100791.34;5076400;27;45437;-79
2022/12/16 01:31:59;;;;;;;;;31.00;26.00;;;;;2.70;100.00;100800.94;5098689;27;45783;-78
2022/12/16 01:34:24;;;;;;;;;28.25;22.75;;;;;2.70;100.00;100803.53;5078699;27;45493;-79
2022/12/16 01:36:49;;;;;;;;;32.75;24.25;;;;;2.68;100.00;100814.75;5072899;27;47601;-79
2022/12/16 01:39:15;;;;;;;;;31.50;24.75;;;;;2.63;100.00;100812.84;5098391;27;45501;-77
2022/12/16 01:41:40;;;;;;;;;30.25;23.00;;;;;2.67;100.00;100818.19;5095661;27;45602;-78
2022/12/16 01:44:14;;;;;;;;;27.00;25.00;;;;;2.63;100.00;100818.03;5093455;27;45249;-79
2022/12/16 01:46:41;;;;;;;;;30.75;28.75;;;;;2.66;100.00;100826.81;5074561;27;46632;-78
2022/12/16 01:49:13;;;;;;;;;33.75;25.25;;;;;2.66;100.00;100822.47;5077989;27;45577;-77
2022/12/16 01:51:42;;;;;;;;;35.00;27.25;;;;;2.63;100.00;100817.16;5063089;27;45490;-78
2022/12/16 01:54:11;;;;;;;;;32.50;26.00;;;;;2.61;100.00;100827.53;5099590;27;45644;-78
2022/12/16 01:56:40;;;;;;;;;36.00;28.75;;;;;2.59;100.00;100839.59;5074939;27;45692;-78
2022/12/16 01:59:05;;;;;;;;;32.50;29.50;;;;;2.58;100.00;100827.38;5079751;27;45416;-78
2022/12/16 02:01:31;;;;;;;;;35.25;27.25;;;;;2.56;100.00;100843.78;5062157;27;45462;-79
2022/12/16 02:04:00;;;;;;;;;26.00;23.00;;;;;2.51;100.00;100851.41;5078892;27;45518;-78
2022/12/16 02:06:26;;;;;;;;;33.50;30.25;;;;;2.50;100.00;100857.41;5079279;27;47852;-78
2022/12/16 02:08:56;;;;;;;;;41.25;27.50;;;;;2.50;100.00;100853.94;5095410;27;45351;-79
2022/12/16 02:11:37;;;;;;;;;34.50;26.00;;;;;2.46;100.00;100846.81;5071492;27;45426;-79
2022/12/16 02:14:27;;;;;;;;;33.75;28.25;;;;;2.48;100.00;100860.81;5096534;27;45408;-78
2022/12/16 02:16:59;;;;;;;;;33.50;30.50;;;;;2.46;100.00;100842.50;5091416;27;46385;-78
2022/12/16 02:19:40;;;;;;;;;36.75;31.75;;;;;2.49;100.00;100849.53;5079012;27;45445;-78
2022/12/16 02:22:36;;;;;;;;;36.50;28.75;;;;;2.50;100.00;100851.31;5097311;27;45804;-78
2022/12/16 02:25:07;;;;;;;;;40.25;32.25;;;;;2.48;100.00;100850.38;5069932;28;45331;-79
2022/12/16 02:28:10;;;;;;;;;39.50;30.00;;;;;2.48;100.00;100850.38;5090216;27;45488;-80
2022/12/16 02:31:00;;;;;;;;;34.00;28.75;;;;;2.47;100.00;100853.81;5037372;27;45301;-79
2022/12/16 02:33:37;;;;;;;;;27.25;26.00;;;;;2.46;100.00;100854.66;5097034;27;45452;-78
2022/12/16 02:36:30;;;;;;;;;30.75;30.50;;;;;2.44;100.00;100853.66;5090805;27;45295;-78
2022/12/16 02:38:59;;;;;;;;;35.50;28.00;;;;;2.39;100.00;100866.47;5096975;27;46550;-79
2022/12/16 02:41:34;;;;;;;;;32.50;28.75;;;;;2.33;100.00;100847.97;5058906;27;45689;-77
2022/12/16 02:44:05;;;;;;;;;41.25;30.50;;;;;2.34;100.00;100852.38;5096830;27;45559;-78
2022/12/16 02:46:32;;;;;;;;;39.75;32.50;;;;;2.30;100.00;100847.88;5079926;27;45580;-78
2022/12/16 02:49:13;;;;;;;;;34.50;25.25;;;;;2.32;100.00;100869.66;5079286;27;45956;-78
2022/12/16 02:51:39;;;;;;;;;43.25;28.25;;;;;2.29;100.00;100869.50;5096762;27;45302;-79
2022/12/16 02:54:08;;;;;;;;;35.00;26.75;;;;;2.27;100.00;100861.63;5087585;27;45466;-77
2022/12/16 02:56:33;;;;;;;;;40.75;29.00;;;;;2.28;100.00;100865.13;5093982;27;45477;-77
2022/12/16 02:59:14;;;;;;;;;33.50;29.25;;;;;2.28;100.00;100866.00;5076839;27;47420;-78
2022/12/16 03:02:04;;;;;;;;;43.00;29.25;;;;;2.22;100.00;100863.13;5096909;27;45322;-77
2022/12/16 03:04:51;;;;;;;;;43.00;35.00;;;;;2.26;100.00;100874.59;5075290;27;45435;-78
2022/12/16 03:07:17;;;;;;;;;37.00;30.00;;;;;2.23;100.00;100872.72;5095682;27;45581;-76
2022/12/16 03:09:44;;;;;;;;;43.25;32.25;;;;;2.24;100.00;100873.66;5097057;27;46872;-78
2022/12/16 03:12:12;;;;;;;;;42.50;34.00;;;;;2.23;100.00;100869.22;5077626;27;45549;-77
2022/12/16 03:14:41;;;;;;;;;44.00;35.75;;;;;2.25;100.00;100875.44;5078895;27;45568;-79
2022/12/16 03:17:07;;;;;;;;;38.25;32.25;;;;;2.24;100.00;100874.53;5078247;27;45358;-77
2022/12/16 03:19:34;;;;;;;;;43.00;32.25;;;;;2.22;100.00;100875.28;5075022;28;45942;-79
2022/12/16 03:22:07;;;;;;;;;39.25;27.25;;;;;2.19;100.00;100878.66;5077097;27;45525;-78
2022/12/16 03:24:33;;;;;;;;;35.25;28.75;;;;;2.17;100.00;100861.16;5078694;27;45398;-79
2022/12/16 03:27:21;;;;;;;;;39.00;24.75;;;;;2.22;100.00;100880.47;5060377;27;45641;-77
2022/12/16 03:29:52;;;;;;;;;34.00;28.75;;;;;2.23;100.00;100879.66;5094568;27;45969;-77
2022/12/16 03:33:09;;;;;;;;;44.00;30.25;;;;;2.25;100.00;100883.25;5095700;27;45445;-77
2022/12/16 03:35:59;;;;;;;;;40.25;35.00;;;;;2.23;100.00;100885.75;5043266;27;45337;-78
2022/12/16 03:38:26;;;;;;;;;28.50;25.25;;;;;2.24;100.00;100892.78;5078835;27;45387;-78
2022/12/16 03:40:52;;;;;;;;;36.00;27.50;;;;;2.26;100.00;100898.03;5094296;27;48356;-77
2022/12/16 03:43:18;;;;;;;;;39.25;29.25;;;;;2.25;100.00;100897.16;5076424;27;45440;-77
2022/12/16 03:45:45;;;;;;;;;34.50;28.50;;;;;2.25;100.00;100894.53;5069580;28;45500;-80
2022/12/16 03:48:12;;;;;;;;;37.50;27.00;;;;;2.25;100.00;100901.47;5066574;27;45368;-77
2022/12/16 03:50:38;;;;;;;;;38.50;28.25;;;;;2.23;100.00;100905.69;5077077;27;47697;-79
2022/12/16 03:53:05;;;;;;;;;30.75;26.50;;;;;2.23;100.00;100898.78;5077622;27;45509;-78
2022/12/16 03:55:31;;;;;;;;;26.50;24.00;;;;;2.23;100.00;100897.88;5078321;27;45203;-78
2022/12/16 03:57:56;;;;;;;;;36.25;20.75;;;;;2.21;100.00;100891.72;5094930;27;47006;-79
2022/12/16 04:00:23;;;;;;;;;29.00;22.75;;;;;2.25;100.00;100885.84;5077355;27;46492;-79
2022/12/16 04:02:48;;;;;;;;;22.75;17.75;;;;;2.25;100.00;100898.88;5065855;27;45461;-79
2022/12/16 04:05:13;;;;;;;;;31.75;22.75;;;;;2.27;100.00;100892.00;5078991;27;45980;-78
2022/12/16 04:07:39;;;;;;;;;28.00;23.50;;;;;2.23;100.00;100900.50;5077010;27;45395;-78
2022/12/16 04:10:05;;;;;;;;;29.50;24.00;;;;;2.24;100.00;100911.00;5069286;27;53252;-78
2022/12/16 04:26:15;;;;;;;;;42.00;30.75;;;;;2.31;100.00;100939.09;5076616;27;45529;-78
2022/12/16 04:28:41;;;;;;;;;39.00;28.00;;;;;2.29;100.00;100932.94;5073582;28;45574;-77
2022/12/16 04:31:06;;;;;;;;;36.00;29.00;;;;;2.28;100.00;100930.25;5094021;27;45533;-78
